sensor_id;sensor_type;location;lat;lon;timestamp;P1;P2;P0
38288;PMS5003;24092;53.370;-6.588;2022-09-03T00:02:27;31;30;
38288;PMS5003;24092;53.370;-6.588;2022-09-03T00:05:04;33;26;
38288;PMS5003;24092;53.370;-6.588;2022-09-03T00:07:39;28;26;
38288;PMS5003;24092;53.370;-6.588;2022-09-03T00:10:13;26;22;
38288;PMS5003;24092;53.370;-6.588;2022-09-03T00:12:44;28;26;
38288;PMS5003;24092;53.370;-6.588;2022-09-03T00:15:13;20;19;
38288;PMS5003;24092;53.370;-6.588;2022-09-03T00:17:45;25;23;
38288;PMS5003;24092;53.370;-6.588;2022-09-03T00:20:18;21;18;
38288;PMS5003;24092;53.370;-6.588;2022-09-03T00:22:50;24;22;
38288;PMS5003;24092;53.370;-6.588;2022-09-03T00:25:22;20;20;
38288;PMS5003;24092;53.370;-6.588;2022-09-03T00:27:53;20;18;
38288;PMS5003;24092;53.370;-6.588;2022-09-03T00:30:24;23;20;
38288;PMS5003;24092;53.370;-6.588;2022-09-03T00:32:53;24;22;
38288;PMS5003;24092;53.370;-6.588;2022-09-03T00:35:25;18;17;
38288;PMS5003;24092;53.370;-6.588;2022-09-03T00:37:55;20;17;
38288;PMS5003;24092;53.370;-6.588;2022-09-03T00:40:31;18;16;
38288;PMS5003;24092;53.370;-6.588;2022-09-03T00:43:09;11;11;
38288;PMS5003;24092;53.370;-6.588;2022-09-03T00:45:47;9;7;
38288;PMS5003;24092;53.370;-6.588;2022-09-03T00:48:23;11;10;
38288;PMS5003;24092;53.370;-6.588;2022-09-03T00:50:57;7;6;
38288;PMS5003;24092;53.370;-6.588;2022-09-03T00:53:33;6;6;
38288;PMS5003;24092;53.370;-6.588;2022-09-03T00:56:10;8;8;
38288;PMS5003;24092;53.370;-6.588;2022-09-03T00:58:51;6;6;
38288;PMS5003;24092;53.370;-6.588;2022-09-03T01:01:29;5;4;
38288;PMS5003;24092;53.370;-6.588;2022-09-03T01:04:05;5;5;
38288;PMS5003;24092;53.370;-6.588;2022-09-03T01:06:42;6;5;
38288;PMS5003;24092;53.370;-6.588;2022-09-03T01:09:20;6;5;
38288;PMS5003;24092;53.370;-6.588;2022-09-03T01:12:02;5;5;
38288;PMS5003;24092;53.370;-6.588;2022-09-03T01:14:39;3;2;
38288;PMS5003;24092;53.370;-6.588;2022-09-03T01:17:17;2;2;
38288;PMS5003;24092;53.370;-6.588;2022-09-03T01:20:00;1;1;
38288;PMS5003;24092;53.370;-6.588;2022-09-03T01:24:53;1;1;
38288;PMS5003;24092;53.370;-6.588;2022-09-03T01:27:35;1;1;
38288;PMS5003;24092;53.370;-6.588;2022-09-03T01:30:11;1;1;
38288;PMS5003;24092;53.370;-6.588;2022-09-03T01:32:41;0;0;
38288;PMS5003;24092;53.370;-6.588;2022-09-03T01:35:17;2;2;
38288;PMS5003;24092;53.370;-6.588;2022-09-03T01:37:58;2;1;
38288;PMS5003;24092;53.370;-6.588;2022-09-03T01:40:39;2;1;
38288;PMS5003;24092;53.370;-6.588;2022-09-03T01:43:18;0;0;
38288;PMS5003;24092;53.370;-6.588;2022-09-03T01:45:54;1;1;
38288;PMS5003;24092;53.370;-6.588;2022-09-03T01:48:31;1;1;
38288;PMS5003;24092;53.370;-6.588;2022-09-03T01:51:09;1;1;
38288;PMS5003;24092;53.370;-6.588;2022-09-03T01:53:49;1;0;
38288;PMS5003;24092;53.370;-6.588;2022-09-03T01:57:22;1;1;
38288;PMS5003;24092;53.370;-6.588;2022-09-03T02:00:03;3;0;
38288;PMS5003;24092;53.370;-6.588;2022-09-03T02:02:32;1;1;
38288;PMS5003;24092;53.370;-6.588;2022-09-03T02:05:00;0;0;
38288;PMS5003;24092;53.370;-6.588;2022-09-03T02:07:32;1;0;
38288;PMS5003;24092;53.370;-6.588;2022-09-03T02:10:04;0;0;
38288;PMS5003;24092;53.370;-6.588;2022-09-03T02:12:35;1;1;
38288;PMS5003;24092;53.370;-6.588;2022-09-03T02:15:04;0;0;
38288;PMS5003;24092;53.370;-6.588;2022-09-03T02:17:35;1;1;
38288;PMS5003;24092;53.370;-6.588;2022-09-03T02:20:04;1;1;
38288;PMS5003;24092;53.370;-6.588;2022-09-03T02:22:35;0;0;
38288;PMS5003;24092;53.370;-6.588;2022-09-03T02:25:03;0;0;
38288;PMS5003;24092;53.370;-6.588;2022-09-03T02:27:31;1;1;
38288;PMS5003;24092;53.370;-6.588;2022-09-03T02:29:59;2;2;
38288;PMS5003;24092;53.370;-6.588;2022-09-03T02:32:26;2;2;
38288;PMS5003;24092;53.370;-6.588;2022-09-03T02:34:54;1;1;
38288;PMS5003;24092;53.370;-6.588;2022-09-03T02:37:21;1;0;
38288;PMS5003;24092;53.370;-6.588;2022-09-03T02:39:47;2;1;
38288;PMS5003;24092;53.370;-6.588;2022-09-03T02:42:15;3;1;
38288;PMS5003;24092;53.370;-6.588;2022-09-03T02:44:43;1;1;
38288;PMS5003;24092;53.370;-6.588;2022-09-03T02:47:14;1;1;
38288;PMS5003;24092;53.370;-6.588;2022-09-03T02:49:41;0;0;
38288;PMS5003;24092;53.370;-6.588;2022-09-03T02:52:08;1;1;
38288;PMS5003;24092;53.370;-6.588;2022-09-03T02:54:36;0;0;
38288;PMS5003;24092;53.370;-6.588;2022-09-03T02:57:04;0;0;
38288;PMS5003;24092;53.370;-6.588;2022-09-03T02:59:32;1;1;
38288;PMS5003;24092;53.370;-6.588;2022-09-03T03:02:00;2;1;
38288;PMS5003;24092;53.370;-6.588;2022-09-03T03:04:28;1;1;
38288;PMS5003;24092;53.370;-6.588;2022-09-03T03:06:55;1;1;
38288;PMS5003;24092;53.370;-6.588;2022-09-03T03:09:22;0;0;
38288;PMS5003;24092;53.370;-6.588;2022-09-03T03:11:49;1;1;
38288;PMS5003;24092;53.370;-6.588;2022-09-03T03:14:17;1;1;
38288;PMS5003;24092;53.370;-6.588;2022-09-03T03:16:44;1;1;
38288;PMS5003;24092;53.370;-6.588;2022-09-03T03:19:11;1;1;
38288;PMS5003;24092;53.370;-6.588;2022-09-03T03:21:38;1;1;
38288;PMS5003;24092;53.370;-6.588;2022-09-03T03:24:05;2;1;
38288;PMS5003;24092;53.370;-6.588;2022-09-03T03:26:32;1;1;
38288;PMS5003;24092;53.370;-6.588;2022-09-03T03:32:00;0;0;
38288;PMS5003;24092;53.370;-6.588;2022-09-03T03:34:28;1;1;
38288;PMS5003;24092;53.370;-6.588;2022-09-03T03:36:55;1;1;
38288;PMS5003;24092;53.370;-6.588;2022-09-03T03:39:22;0;0;
38288;PMS5003;24092;53.370;-6.588;2022-09-03T03:41:48;1;1;
38288;PMS5003;24092;53.370;-6.588;2022-09-03T03:44:15;1;1;
38288;PMS5003;24092;53.370;-6.588;2022-09-03T03:46:42;1;1;
38288;PMS5003;24092;53.370;-6.588;2022-09-03T03:49:09;1;1;
38288;PMS5003;24092;53.370;-6.588;2022-09-03T03:51:36;1;1;
38288;PMS5003;24092;53.370;-6.588;2022-09-03T03:54:04;1;1;
38288;PMS5003;24092;53.370;-6.588;2022-09-03T03:56:32;1;1;
38288;PMS5003;24092;53.370;-6.588;2022-09-03T03:58:59;1;1;
38288;PMS5003;24092;53.370;-6.588;2022-09-03T04:01:27;1;1;
38288;PMS5003;24092;53.370;-6.588;2022-09-03T04:03:55;0;0;
38288;PMS5003;24092;53.370;-6.588;2022-09-03T04:06:23;1;1;
38288;PMS5003;24092;53.370;-6.588;2022-09-03T04:08:50;0;0;
38288;PMS5003;24092;53.370;-6.588;2022-09-03T04:11:18;1;1;
38288;PMS5003;24092;53.370;-6.588;2022-09-03T04:13:47;2;1;
38288;PMS5003;24092;53.370;-6.588;2022-09-03T04:16:16;2;1;
38288;PMS5003;24092;53.370;-6.588;2022-09-03T04:18:44;1;1;
38288;PMS5003;24092;53.370;-6.588;2022-09-03T04:21:12;1;1;
38288;PMS5003;24092;53.370;-6.588;2022-09-03T04:23:41;1;1;
38288;PMS5003;24092;53.370;-6.588;2022-09-03T04:26:10;1;1;
38288;PMS5003;24092;53.370;-6.588;2022-09-03T04:28:39;1;1;
38288;PMS5003;24092;53.370;-6.588;2022-09-03T04:31:06;1;1;
38288;PMS5003;24092;53.370;-6.588;2022-09-03T04:33:35;4;3;
38288;PMS5003;24092;53.370;-6.588;2022-09-03T04:36:04;1;1;
38288;PMS5003;24092;53.370;-6.588;2022-09-03T04:38:33;1;1;
38288;PMS5003;24092;53.370;-6.588;2022-09-03T04:41:01;1;1;
38288;PMS5003;24092;53.370;-6.588;2022-09-03T04:43:29;1;1;
38288;PMS5003;24092;53.370;-6.588;2022-09-03T04:45:56;1;1;
38288;PMS5003;24092;53.370;-6.588;2022-09-03T04:48:24;1;1;
38288;PMS5003;24092;53.370;-6.588;2022-09-03T04:50:51;1;1;
38288;PMS5003;24092;53.370;-6.588;2022-09-03T04:53:19;0;0;
38288;PMS5003;24092;53.370;-6.588;2022-09-03T04:55:47;2;1;
38288;PMS5003;24092;53.370;-6.588;2022-09-03T04:58:15;1;1;
38288;PMS5003;24092;53.370;-6.588;2022-09-03T05:00:42;2;1;
38288;PMS5003;24092;53.370;-6.588;2022-09-03T05:03:09;2;1;
38288;PMS5003;24092;53.370;-6.588;2022-09-03T05:05:36;1;1;
38288;PMS5003;24092;53.370;-6.588;2022-09-03T05:08:03;1;1;
38288;PMS5003;24092;53.370;-6.588;2022-09-03T05:10:30;2;1;
38288;PMS5003;24092;53.370;-6.588;2022-09-03T05:12:58;1;1;
38288;PMS5003;24092;53.370;-6.588;2022-09-03T05:15:26;1;1;
38288;PMS5003;24092;53.370;-6.588;2022-09-03T05:17:55;1;1;
38288;PMS5003;24092;53.370;-6.588;2022-09-03T05:20:23;2;1;
38288;PMS5003;24092;53.370;-6.588;2022-09-03T05:22:50;1;1;
38288;PMS5003;24092;53.370;-6.588;2022-09-03T05:25:18;1;1;
38288;PMS5003;24092;53.370;-6.588;2022-09-03T05:27:45;1;1;
38288;PMS5003;24092;53.370;-6.588;2022-09-03T05:30:12;2;2;
38288;PMS5003;24092;53.370;-6.588;2022-09-03T05:32:39;1;1;
38288;PMS5003;24092;53.370;-6.588;2022-09-03T05:35:07;1;1;
38288;PMS5003;24092;53.370;-6.588;2022-09-03T05:37:35;1;1;
38288;PMS5003;24092;53.370;-6.588;2022-09-03T05:40:03;1;1;
38288;PMS5003;24092;53.370;-6.588;2022-09-03T05:42:31;2;1;
38288;PMS5003;24092;53.370;-6.588;2022-09-03T05:44:59;2;2;
38288;PMS5003;24092;53.370;-6.588;2022-09-03T05:47:26;1;1;
38288;PMS5003;24092;53.370;-6.588;2022-09-03T05:49:53;1;1;
38288;PMS5003;24092;53.370;-6.588;2022-09-03T05:52:20;1;1;
38288;PMS5003;24092;53.370;-6.588;2022-09-03T05:54:47;1;1;
38288;PMS5003;24092;53.370;-6.588;2022-09-03T05:57:14;1;1;
38288;PMS5003;24092;53.370;-6.588;2022-09-03T05:59:41;0;0;
38288;PMS5003;24092;53.370;-6.588;2022-09-03T06:02:08;1;1;
38288;PMS5003;24092;53.370;-6.588;2022-09-03T06:04:35;1;1;
38288;PMS5003;24092;53.370;-6.588;2022-09-03T06:07:02;1;1;
38288;PMS5003;24092;53.370;-6.588;2022-09-03T06:09:29;1;1;
38288;PMS5003;24092;53.370;-6.588;2022-09-03T06:11:56;3;3;
38288;PMS5003;24092;53.370;-6.588;2022-09-03T06:14:23;2;2;
38288;PMS5003;24092;53.370;-6.588;2022-09-03T06:16:50;3;3;
38288;PMS5003;24092;53.370;-6.588;2022-09-03T06:19:17;3;3;
38288;PMS5003;24092;53.370;-6.588;2022-09-03T06:21:45;2;2;
38288;PMS5003;24092;53.370;-6.588;2022-09-03T06:24:14;3;3;
38288;PMS5003;24092;53.370;-6.588;2022-09-03T06:26:42;3;3;
38288;PMS5003;24092;53.370;-6.588;2022-09-03T06:29:10;3;2;
38288;PMS5003;24092;53.370;-6.588;2022-09-03T06:31:38;2;2;
38288;PMS5003;24092;53.370;-6.588;2022-09-03T06:34:04;1;1;
38288;PMS5003;24092;53.370;-6.588;2022-09-03T06:36:31;2;2;
38288;PMS5003;24092;53.370;-6.588;2022-09-03T06:38:59;4;3;
38288;PMS5003;24092;53.370;-6.588;2022-09-03T06:41:27;2;2;
38288;PMS5003;24092;53.370;-6.588;2022-09-03T06:43:56;2;2;
38288;PMS5003;24092;53.370;-6.588;2022-09-03T06:46:24;1;1;
38288;PMS5003;24092;53.370;-6.588;2022-09-03T06:48:51;2;2;
38288;PMS5003;24092;53.370;-6.588;2022-09-03T06:51:19;2;2;
38288;PMS5003;24092;53.370;-6.588;2022-09-03T06:53:47;1;1;
38288;PMS5003;24092;53.370;-6.588;2022-09-03T06:56:17;2;1;
38288;PMS5003;24092;53.370;-6.588;2022-09-03T06:58:46;2;2;
38288;PMS5003;24092;53.370;-6.588;2022-09-03T07:01:14;1;1;
38288;PMS5003;24092;53.370;-6.588;2022-09-03T07:03:43;2;1;
38288;PMS5003;24092;53.370;-6.588;2022-09-03T07:06:13;1;1;
38288;PMS5003;24092;53.370;-6.588;2022-09-03T07:08:42;3;3;
38288;PMS5003;24092;53.370;-6.588;2022-09-03T07:11:10;2;2;
38288;PMS5003;24092;53.370;-6.588;2022-09-03T07:13:39;1;1;
38288;PMS5003;24092;53.370;-6.588;2022-09-03T07:16:08;2;2;
38288;PMS5003;24092;53.370;-6.588;2022-09-03T07:18:37;1;1;
38288;PMS5003;24092;53.370;-6.588;2022-09-03T07:21:06;2;2;
38288;PMS5003;24092;53.370;-6.588;2022-09-03T07:23:35;2;2;
38288;PMS5003;24092;53.370;-6.588;2022-09-03T07:26:04;1;1;
38288;PMS5003;24092;53.370;-6.588;2022-09-03T07:28:34;1;1;
38288;PMS5003;24092;53.370;-6.588;2022-09-03T07:31:04;3;3;
38288;PMS5003;24092;53.370;-6.588;2022-09-03T07:33:33;1;1;
38288;PMS5003;24092;53.370;-6.588;2022-09-03T07:36:02;1;1;
38288;PMS5003;24092;53.370;-6.588;2022-09-03T07:38:30;2;2;
38288;PMS5003;24092;53.370;-6.588;2022-09-03T07:40:57;2;1;
38288;PMS5003;24092;53.370;-6.588;2022-09-03T07:43:24;2;2;
38288;PMS5003;24092;53.370;-6.588;2022-09-03T07:45:52;2;2;
38288;PMS5003;24092;53.370;-6.588;2022-09-03T07:48:19;3;3;
38288;PMS5003;24092;53.370;-6.588;2022-09-03T07:50:46;6;5;
38288;PMS5003;24092;53.370;-6.588;2022-09-03T07:53:13;4;4;
38288;PMS5003;24092;53.370;-6.588;2022-09-03T07:55:41;3;3;
38288;PMS5003;24092;53.370;-6.588;2022-09-03T07:58:08;5;4;
38288;PMS5003;24092;53.370;-6.588;2022-09-03T08:00:35;6;6;
38288;PMS5003;24092;53.370;-6.588;2022-09-03T08:03:02;6;6;
38288;PMS5003;24092;53.370;-6.588;2022-09-03T08:05:29;7;6;
38288;PMS5003;24092;53.370;-6.588;2022-09-03T08:07:58;3;3;
38288;PMS5003;24092;53.370;-6.588;2022-09-03T08:10:25;6;6;
38288;PMS5003;24092;53.370;-6.588;2022-09-03T08:12:52;5;5;
38288;PMS5003;24092;53.370;-6.588;2022-09-03T08:15:19;4;4;
38288;PMS5003;24092;53.370;-6.588;2022-09-03T08:17:46;6;6;
38288;PMS5003;24092;53.370;-6.588;2022-09-03T08:20:14;10;10;
38288;PMS5003;24092;53.370;-6.588;2022-09-03T08:22:41;1;1;
38288;PMS5003;24092;53.370;-6.588;2022-09-03T08:25:08;2;2;
38288;PMS5003;24092;53.370;-6.588;2022-09-03T08:27:35;1;1;
38288;PMS5003;24092;53.370;-6.588;2022-09-03T08:30:02;2;2;
38288;PMS5003;24092;53.370;-6.588;2022-09-03T08:32:30;2;2;
38288;PMS5003;24092;53.370;-6.588;2022-09-03T08:34:57;2;2;
38288;PMS5003;24092;53.370;-6.588;2022-09-03T08:37:23;2;2;
38288;PMS5003;24092;53.370;-6.588;2022-09-03T08:39:50;2;2;
38288;PMS5003;24092;53.370;-6.588;2022-09-03T08:42:20;2;2;
38288;PMS5003;24092;53.370;-6.588;2022-09-03T08:44:54;2;2;
38288;PMS5003;24092;53.370;-6.588;2022-09-03T08:47:25;2;2;
38288;PMS5003;24092;53.370;-6.588;2022-09-03T08:49:59;6;4;
38288;PMS5003;24092;53.370;-6.588;2022-09-03T08:52:30;5;5;
38288;PMS5003;24092;53.370;-6.588;2022-09-03T08:55:11;2;2;
38288;PMS5003;24092;53.370;-6.588;2022-09-03T08:57:44;1;1;
38288;PMS5003;24092;53.370;-6.588;2022-09-03T09:00:14;2;2;
38288;PMS5003;24092;53.370;-6.588;2022-09-03T09:02:46;3;2;
38288;PMS5003;24092;53.370;-6.588;2022-09-03T09:05:23;3;2;
38288;PMS5003;24092;53.370;-6.588;2022-09-03T09:07:59;2;2;
38288;PMS5003;24092;53.370;-6.588;2022-09-03T09:10:36;2;2;
38288;PMS5003;24092;53.370;-6.588;2022-09-03T09:13:11;1;1;
38288;PMS5003;24092;53.370;-6.588;2022-09-03T09:15:48;2;2;
38288;PMS5003;24092;53.370;-6.588;2022-09-03T09:18:22;6;5;
38288;PMS5003;24092;53.370;-6.588;2022-09-03T09:21:06;1;1;
38288;PMS5003;24092;53.370;-6.588;2022-09-03T09:23:39;5;5;
38288;PMS5003;24092;53.370;-6.588;2022-09-03T09:26:11;1;1;
38288;PMS5003;24092;53.370;-6.588;2022-09-03T09:28:42;0;0;
38288;PMS5003;24092;53.370;-6.588;2022-09-03T09:31:13;1;1;
38288;PMS5003;24092;53.370;-6.588;2022-09-03T09:33:41;0;0;
38288;PMS5003;24092;53.370;-6.588;2022-09-03T09:36:08;0;0;
38288;PMS5003;24092;53.370;-6.588;2022-09-03T09:38:38;1;1;
38288;PMS5003;24092;53.370;-6.588;2022-09-03T09:41:09;1;1;
38288;PMS5003;24092;53.370;-6.588;2022-09-03T09:43:38;1;1;
38288;PMS5003;24092;53.370;-6.588;2022-09-03T09:46:07;1;1;
38288;PMS5003;24092;53.370;-6.588;2022-09-03T09:48:42;1;1;
38288;PMS5003;24092;53.370;-6.588;2022-09-03T09:51:17;1;1;
38288;PMS5003;24092;53.370;-6.588;2022-09-03T09:53:46;0;0;
38288;PMS5003;24092;53.370;-6.588;2022-09-03T09:56:21;1;1;
38288;PMS5003;24092;53.370;-6.588;2022-09-03T09:59:00;0;0;
38288;PMS5003;24092;53.370;-6.588;2022-09-03T10:01:28;1;1;
38288;PMS5003;24092;53.370;-6.588;2022-09-03T10:03:57;2;2;
38288;PMS5003;24092;53.370;-6.588;2022-09-03T10:06:26;1;1;
38288;PMS5003;24092;53.370;-6.588;2022-09-03T10:09:04;2;2;
38288;PMS5003;24092;53.370;-6.588;2022-09-03T10:11:33;1;1;
38288;PMS5003;24092;53.370;-6.588;2022-09-03T10:14:01;1;1;
38288;PMS5003;24092;53.370;-6.588;2022-09-03T10:16:32;0;0;
38288;PMS5003;24092;53.370;-6.588;2022-09-03T10:19:08;2;2;
38288;PMS5003;24092;53.370;-6.588;2022-09-03T10:21:44;1;1;
38288;PMS5003;24092;53.370;-6.588;2022-09-03T10:24:24;1;1;
38288;PMS5003;24092;53.370;-6.588;2022-09-03T10:26:58;1;1;
38288;PMS5003;24092;53.370;-6.588;2022-09-03T10:29:25;2;1;
38288;PMS5003;24092;53.370;-6.588;2022-09-03T10:31:54;2;2;
38288;PMS5003;24092;53.370;-6.588;2022-09-03T10:34:31;1;1;
38288;PMS5003;24092;53.370;-6.588;2022-09-03T10:37:08;1;1;
38288;PMS5003;24092;53.370;-6.588;2022-09-03T10:39:49;2;1;
38288;PMS5003;24092;53.370;-6.588;2022-09-03T10:42:31;1;1;
38288;PMS5003;24092;53.370;-6.588;2022-09-03T10:45:05;6;6;
38288;PMS5003;24092;53.370;-6.588;2022-09-03T10:47:49;1;1;
38288;PMS5003;24092;53.370;-6.588;2022-09-03T10:51:00;1;0;
38288;PMS5003;24092;53.370;-6.588;2022-09-03T10:53:38;1;1;
38288;PMS5003;24092;53.370;-6.588;2022-09-03T10:56:14;1;1;
38288;PMS5003;24092;53.370;-6.588;2022-09-03T10:58:47;3;3;
38288;PMS5003;24092;53.370;-6.588;2022-09-03T11:01:26;4;3;
38288;PMS5003;24092;53.370;-6.588;2022-09-03T11:04:04;1;1;
38288;PMS5003;24092;53.370;-6.588;2022-09-03T11:06:45;2;2;
38288;PMS5003;24092;53.370;-6.588;2022-09-03T11:09:17;1;1;
38288;PMS5003;24092;53.370;-6.588;2022-09-03T11:11:50;1;1;
38288;PMS5003;24092;53.370;-6.588;2022-09-03T11:14:26;2;1;
38288;PMS5003;24092;53.370;-6.588;2022-09-03T11:17:01;2;2;
38288;PMS5003;24092;53.370;-6.588;2022-09-03T11:19:35;6;4;
38288;PMS5003;24092;53.370;-6.588;2022-09-03T11:22:07;2;2;
38288;PMS5003;24092;53.370;-6.588;2022-09-03T11:24:36;2;1;
38288;PMS5003;24092;53.370;-6.588;2022-09-03T11:27:09;4;3;
38288;PMS5003;24092;53.370;-6.588;2022-09-03T11:29:51;3;3;
38288;PMS5003;24092;53.370;-6.588;2022-09-03T11:32:24;4;4;
38288;PMS5003;24092;53.370;-6.588;2022-09-03T11:35:00;4;3;
38288;PMS5003;24092;53.370;-6.588;2022-09-03T11:37:51;5;5;
38288;PMS5003;24092;53.370;-6.588;2022-09-03T11:40:28;6;5;
38288;PMS5003;24092;53.370;-6.588;2022-09-03T11:43:06;4;4;
38288;PMS5003;24092;53.370;-6.588;2022-09-03T11:45:38;2;2;
38288;PMS5003;24092;53.370;-6.588;2022-09-03T11:48:40;2;2;
38288;PMS5003;24092;53.370;-6.588;2022-09-03T11:51:18;2;2;
38288;PMS5003;24092;53.370;-6.588;2022-09-03T11:53:54;3;2;
38288;PMS5003;24092;53.370;-6.588;2022-09-03T11:56:23;2;2;
38288;PMS5003;24092;53.370;-6.588;2022-09-03T11:59:23;3;2;
38288;PMS5003;24092;53.370;-6.588;2022-09-03T12:01:55;2;2;
38288;PMS5003;24092;53.370;-6.588;2022-09-03T12:04:29;2;2;
38288;PMS5003;24092;53.370;-6.588;2022-09-03T12:07:10;1;1;
38288;PMS5003;24092;53.370;-6.588;2022-09-03T12:09:52;1;1;
38288;PMS5003;24092;53.370;-6.588;2022-09-03T12:12:34;3;3;
38288;PMS5003;24092;53.370;-6.588;2022-09-03T12:15:13;2;2;
38288;PMS5003;24092;53.370;-6.588;2022-09-03T12:17:49;3;3;
38288;PMS5003;24092;53.370;-6.588;2022-09-03T12:20:19;2;2;
38288;PMS5003;24092;53.370;-6.588;2022-09-03T12:22:53;1;1;
38288;PMS5003;24092;53.370;-6.588;2022-09-03T12:25:20;2;2;
38288;PMS5003;24092;53.370;-6.588;2022-09-03T12:27:46;3;3;
38288;PMS5003;24092;53.370;-6.588;2022-09-03T12:30:14;3;3;
38288;PMS5003;24092;53.370;-6.588;2022-09-03T12:32:44;2;2;
38288;PMS5003;24092;53.370;-6.588;2022-09-03T12:35:12;2;2;
38288;PMS5003;24092;53.370;-6.588;2022-09-03T12:37:41;2;2;
38288;PMS5003;24092;53.370;-6.588;2022-09-03T12:40:15;1;1;
38288;PMS5003;24092;53.370;-6.588;2022-09-03T12:42:44;2;2;
38288;PMS5003;24092;53.370;-6.588;2022-09-03T12:45:12;3;3;
38288;PMS5003;24092;53.370;-6.588;2022-09-03T12:47:40;2;2;
38288;PMS5003;24092;53.370;-6.588;2022-09-03T12:50:09;2;2;
38288;PMS5003;24092;53.370;-6.588;2022-09-03T12:52:38;3;2;
38288;PMS5003;24092;53.370;-6.588;2022-09-03T12:55:13;4;3;
38288;PMS5003;24092;53.370;-6.588;2022-09-03T12:57:51;2;2;
38288;PMS5003;24092;53.370;-6.588;2022-09-03T13:00:20;2;2;
38288;PMS5003;24092;53.370;-6.588;2022-09-03T13:02:49;2;2;
38288;PMS5003;24092;53.370;-6.588;2022-09-03T13:05:20;1;1;
38288;PMS5003;24092;53.370;-6.588;2022-09-03T13:07:59;2;2;
38288;PMS5003;24092;53.370;-6.588;2022-09-03T13:10:28;3;2;
38288;PMS5003;24092;53.370;-6.588;2022-09-03T13:12:57;2;1;
38288;PMS5003;24092;53.370;-6.588;2022-09-03T13:15:26;0;0;
38288;PMS5003;24092;53.370;-6.588;2022-09-03T13:17:57;3;2;
38288;PMS5003;24092;53.370;-6.588;2022-09-03T13:20:40;1;1;
38288;PMS5003;24092;53.370;-6.588;2022-09-03T13:23:28;0;0;
38288;PMS5003;24092;53.370;-6.588;2022-09-03T13:26:07;1;1;
38288;PMS5003;24092;53.370;-6.588;2022-09-03T13:28:48;1;1;
38288;PMS5003;24092;53.370;-6.588;2022-09-03T13:31:28;1;1;
38288;PMS5003;24092;53.370;-6.588;2022-09-03T13:34:01;2;1;
38288;PMS5003;24092;53.370;-6.588;2022-09-03T13:36:35;1;1;
38288;PMS5003;24092;53.370;-6.588;2022-09-03T13:39:15;1;1;
38288;PMS5003;24092;53.370;-6.588;2022-09-03T13:41:50;1;1;
38288;PMS5003;24092;53.370;-6.588;2022-09-03T13:44:29;2;2;
38288;PMS5003;24092;53.370;-6.588;2022-09-03T13:47:08;2;2;
38288;PMS5003;24092;53.370;-6.588;2022-09-03T13:49:41;2;2;
38288;PMS5003;24092;53.370;-6.588;2022-09-03T13:52:17;2;2;
38288;PMS5003;24092;53.370;-6.588;2022-09-03T13:54:51;2;1;
38288;PMS5003;24092;53.370;-6.588;2022-09-03T13:57:26;2;2;
38288;PMS5003;24092;53.370;-6.588;2022-09-03T14:00:02;2;2;
38288;PMS5003;24092;53.370;-6.588;2022-09-03T14:02:43;1;1;
38288;PMS5003;24092;53.370;-6.588;2022-09-03T14:05:18;2;2;
38288;PMS5003;24092;53.370;-6.588;2022-09-03T14:08:03;16;16;
38288;PMS5003;24092;53.370;-6.588;2022-09-03T14:10:40;5;5;
38288;PMS5003;24092;53.370;-6.588;2022-09-03T14:13:19;3;3;
38288;PMS5003;24092;53.370;-6.588;2022-09-03T14:15:55;4;3;
38288;PMS5003;24092;53.370;-6.588;2022-09-03T14:18:34;3;3;
38288;PMS5003;24092;53.370;-6.588;2022-09-03T14:21:09;4;4;
38288;PMS5003;24092;53.370;-6.588;2022-09-03T14:23:43;36;33;
38288;PMS5003;24092;53.370;-6.588;2022-09-03T14:26:15;3;3;
38288;PMS5003;24092;53.370;-6.588;2022-09-03T14:28:45;3;3;
38288;PMS5003;24092;53.370;-6.588;2022-09-03T14:31:17;3;3;
38288;PMS5003;24092;53.370;-6.588;2022-09-03T14:33:54;3;3;
38288;PMS5003;24092;53.370;-6.588;2022-09-03T14:36:30;3;3;
38288;PMS5003;24092;53.370;-6.588;2022-09-03T14:39:14;4;4;
38288;PMS5003;24092;53.370;-6.588;2022-09-03T14:41:55;4;4;
38288;PMS5003;24092;53.370;-6.588;2022-09-03T14:44:42;3;3;
38288;PMS5003;24092;53.370;-6.588;2022-09-03T14:47:22;4;4;
38288;PMS5003;24092;53.370;-6.588;2022-09-03T14:50:07;3;3;
38288;PMS5003;24092;53.370;-6.588;2022-09-03T14:52:52;4;4;
38288;PMS5003;24092;53.370;-6.588;2022-09-03T14:55:39;5;5;
38288;PMS5003;24092;53.370;-6.588;2022-09-03T14:58:19;3;3;
38288;PMS5003;24092;53.370;-6.588;2022-09-03T15:00:56;3;3;
38288;PMS5003;24092;53.370;-6.588;2022-09-03T15:03:33;4;4;
38288;PMS5003;24092;53.370;-6.588;2022-09-03T15:06:14;4;3;
38288;PMS5003;24092;53.370;-6.588;2022-09-03T15:08:54;4;3;
38288;PMS5003;24092;53.370;-6.588;2022-09-03T15:11:43;6;5;
38288;PMS5003;24092;53.370;-6.588;2022-09-03T15:14:17;3;3;
38288;PMS5003;24092;53.370;-6.588;2022-09-03T15:16:50;2;2;
38288;PMS5003;24092;53.370;-6.588;2022-09-03T15:19:34;2;2;
38288;PMS5003;24092;53.370;-6.588;2022-09-03T15:22:11;4;4;
38288;PMS5003;24092;53.370;-6.588;2022-09-03T15:24:48;1;1;
38288;PMS5003;24092;53.370;-6.588;2022-09-03T15:27:30;0;0;
38288;PMS5003;24092;53.370;-6.588;2022-09-03T15:30:09;1;1;
38288;PMS5003;24092;53.370;-6.588;2022-09-03T15:32:42;0;0;
38288;PMS5003;24092;53.370;-6.588;2022-09-03T15:35:24;2;2;
38288;PMS5003;24092;53.370;-6.588;2022-09-03T15:38:02;0;0;
38288;PMS5003;24092;53.370;-6.588;2022-09-03T15:40:34;1;1;
38288;PMS5003;24092;53.370;-6.588;2022-09-03T15:43:08;3;2;
38288;PMS5003;24092;53.370;-6.588;2022-09-03T15:45:48;2;2;
38288;PMS5003;24092;53.370;-6.588;2022-09-03T15:48:20;9;8;
38288;PMS5003;24092;53.370;-6.588;2022-09-03T15:50:57;6;6;
38288;PMS5003;24092;53.370;-6.588;2022-09-03T15:53:35;4;4;
38288;PMS5003;24092;53.370;-6.588;2022-09-03T15:56:09;5;5;
38288;PMS5003;24092;53.370;-6.588;2022-09-03T15:58:42;6;5;
38288;PMS5003;24092;53.370;-6.588;2022-09-03T16:01:34;6;6;
38288;PMS5003;24092;53.370;-6.588;2022-09-03T16:04:08;3;3;
38288;PMS5003;24092;53.370;-6.588;2022-09-03T16:06:51;3;3;
38288;PMS5003;24092;53.370;-6.588;2022-09-03T16:09:29;2;2;
38288;PMS5003;24092;53.370;-6.588;2022-09-03T16:12:09;1;1;
38288;PMS5003;24092;53.370;-6.588;2022-09-03T16:14:45;1;1;
38288;PMS5003;24092;53.370;-6.588;2022-09-03T16:17:20;2;2;
38288;PMS5003;24092;53.370;-6.588;2022-09-03T16:19:53;2;1;
38288;PMS5003;24092;53.370;-6.588;2022-09-03T16:22:27;1;1;
38288;PMS5003;24092;53.370;-6.588;2022-09-03T16:24:58;2;2;
38288;PMS5003;24092;53.370;-6.588;2022-09-03T16:27:29;5;5;
38288;PMS5003;24092;53.370;-6.588;2022-09-03T16:30:06;1;1;
38288;PMS5003;24092;53.370;-6.588;2022-09-03T16:32:41;2;2;
38288;PMS5003;24092;53.370;-6.588;2022-09-03T16:35:19;21;17;
38288;PMS5003;24092;53.370;-6.588;2022-09-03T16:38:00;17;15;
38288;PMS5003;24092;53.370;-6.588;2022-09-03T16:40:35;40;36;
38288;PMS5003;24092;53.370;-6.588;2022-09-03T16:43:11;14;13;
38288;PMS5003;24092;53.370;-6.588;2022-09-03T16:45:52;12;10;
38288;PMS5003;24092;53.370;-6.588;2022-09-03T16:48:30;7;6;
38288;PMS5003;24092;53.370;-6.588;2022-09-03T16:51:10;1;1;
38288;PMS5003;24092;53.370;-6.588;2022-09-03T16:53:49;3;2;
38288;PMS5003;24092;53.370;-6.588;2022-09-03T16:56:30;1;1;
38288;PMS5003;24092;53.370;-6.588;2022-09-03T16:59:08;2;1;
38288;PMS5003;24092;53.370;-6.588;2022-09-03T17:01:49;2;2;
38288;PMS5003;24092;53.370;-6.588;2022-09-03T17:04:30;4;4;
38288;PMS5003;24092;53.370;-6.588;2022-09-03T17:07:14;2;1;
38288;PMS5003;24092;53.370;-6.588;2022-09-03T17:09:55;1;1;
38288;PMS5003;24092;53.370;-6.588;2022-09-03T17:12:30;1;1;
38288;PMS5003;24092;53.370;-6.588;2022-09-03T17:15:08;2;1;